Terminal Aerodrome Forecast
Issued by NWS Wakefield, VA

Home | Current Version | Previous Version | Text Only | Print | Product List | Glossary On
Versions: 1 2 3 4 5 6 7 8 9 10 11 12 13 14 15
000
FTUS41 KAKQ 192340
TAFECG
TAF
KECG 192340Z 2000/2024 11011KT P6SM -RA BKN050 OVC100
     FM200200 12013KT 5SM -RA BR OVC025
     FM200400 13014G20KT 3SM -RA BR OVC015
      TEMPO 2004/2007 OVC008
     FM201000 16015G21KT 5SM BR OVC007
     FM201300 21013KT P6SM OVC015
     FM201600 23012G20KT P6SM SCT050 BKN250=

USA.gov is the U.S. government's official web portal to all federal, state and local government web resources and services.